sensor_id;sensor_type;location;lat;lon;timestamp;pressure;altitude;pressure_sealevel;temperature;humidity
14204;BME280;7185;51.854;6.622;2024-03-17T00:01:51;102080.66;;;10.28;63.05
14204;BME280;7185;51.854;6.622;2024-03-17T00:04:22;102082.34;;;10.19;63.52
14204;BME280;7185;51.854;6.622;2024-03-17T00:06:53;102090.25;;;10.23;63.18
14204;BME280;7185;51.854;6.622;2024-03-17T00:09:25;102080.66;;;10.28;63.10
14204;BME280;7185;51.854;6.622;2024-03-17T00:11:57;102078.91;;;10.27;63.44
14204;BME280;7185;51.854;6.622;2024-03-17T00:14:28;102071.84;;;10.19;63.30
14204;BME280;7185;51.854;6.622;2024-03-17T00:17:00;102071.00;;;10.22;63.26
14204;BME280;7185;51.854;6.622;2024-03-17T00:19:31;102071.84;;;10.16;63.42
14204;BME280;7185;51.854;6.622;2024-03-17T00:22:03;102063.13;;;10.20;63.37
14204;BME280;7185;51.854;6.622;2024-03-17T00:24:35;102057.84;;;10.14;63.73
14204;BME280;7185;51.854;6.622;2024-03-17T00:27:07;102063.19;;;10.31;63.30
14204;BME280;7185;51.854;6.622;2024-03-17T00:29:39;102064.84;;;10.14;63.59
14204;BME280;7185;51.854;6.622;2024-03-17T00:32:10;102057.84;;;10.11;63.97
14204;BME280;7185;51.854;6.622;2024-03-17T00:34:42;102052.47;;;9.96;64.27
14204;BME280;7185;51.854;6.622;2024-03-17T00:37:12;102052.44;;;9.93;64.25
14204;BME280;7185;51.854;6.622;2024-03-17T00:39:45;102051.53;;;9.87;64.32
14204;BME280;7185;51.854;6.622;2024-03-17T00:42:17;102041.88;;;9.83;64.11
14204;BME280;7185;51.854;6.622;2024-03-17T00:44:49;102047.03;;;9.71;64.32
14204;BME280;7185;51.854;6.622;2024-03-17T00:47:20;102040.81;;;9.58;64.85
14204;BME280;7185;51.854;6.622;2024-03-17T00:49:52;102036.50;;;9.65;64.68
14204;BME280;7185;51.854;6.622;2024-03-17T00:52:22;102031.31;;;9.68;64.89
14204;BME280;7185;51.854;6.622;2024-03-17T00:54:54;102028.66;;;9.65;64.64
14204;BME280;7185;51.854;6.622;2024-03-17T00:57:26;102026.97;;;9.73;64.84
14204;BME280;7185;51.854;6.622;2024-03-17T00:59:58;102023.34;;;9.57;64.68
14204;BME280;7185;51.854;6.622;2024-03-17T01:02:28;102018.97;;;9.57;65.04
14204;BME280;7185;51.854;6.622;2024-03-17T01:05:00;102018.94;;;9.53;64.67
14204;BME280;7185;51.854;6.622;2024-03-17T01:07:31;102018.63;;;9.20;65.47
14204;BME280;7185;51.854;6.622;2024-03-17T01:12:39;102026.47;;;9.17;65.38
14204;BME280;7185;51.854;6.622;2024-03-17T01:15:11;102031.75;;;9.22;65.50
14204;BME280;7185;51.854;6.622;2024-03-17T01:17:42;102021.13;;;9.09;65.75
14204;BME280;7185;51.854;6.622;2024-03-17T01:20:13;102019.47;;;9.18;65.81
14204;BME280;7185;51.854;6.622;2024-03-17T01:22:45;102015.19;;;9.24;65.19
14204;BME280;7185;51.854;6.622;2024-03-17T01:25:16;102022.25;;;9.32;64.94
14204;BME280;7185;51.854;6.622;2024-03-17T01:27:49;102019.34;;;9.07;65.55
14204;BME280;7185;51.854;6.622;2024-03-17T01:30:20;102020.25;;;9.07;65.77
14204;BME280;7185;51.854;6.622;2024-03-17T01:32:52;102015.09;;;9.15;65.57
14204;BME280;7185;51.854;6.622;2024-03-17T01:35:22;102009.91;;;9.18;65.61
14204;BME280;7185;51.854;6.622;2024-03-17T01:37:54;102010.88;;;9.28;65.12
14204;BME280;7185;51.854;6.622;2024-03-17T01:40:25;102009.84;;;9.12;65.41
14204;BME280;7185;51.854;6.622;2024-03-17T01:42:58;102008.78;;;8.96;65.89
14204;BME280;7185;51.854;6.622;2024-03-17T01:45:30;102008.03;;;9.05;65.67
14204;BME280;7185;51.854;6.622;2024-03-17T01:48:11;102008.94;;;9.10;65.75
14204;BME280;7185;51.854;6.622;2024-03-17T01:50:44;102005.59;;;9.22;65.32
14204;BME280;7185;51.854;6.622;2024-03-17T01:53:18;102008.09;;;9.14;65.28
14204;BME280;7185;51.854;6.622;2024-03-17T01:55:51;102005.53;;;9.17;65.67
14204;BME280;7185;51.854;6.622;2024-03-17T01:58:27;101994.16;;;9.15;65.69
14204;BME280;7185;51.854;6.622;2024-03-17T02:01:01;101998.44;;;9.05;65.66
14204;BME280;7185;51.854;6.622;2024-03-17T02:03:36;102000.97;;;9.01;65.52
14204;BME280;7185;51.854;6.622;2024-03-17T02:06:07;101997.41;;;8.92;65.87
14204;BME280;7185;51.854;6.622;2024-03-17T02:08:49;101993.88;;;8.87;66.26
14204;BME280;7185;51.854;6.622;2024-03-17T02:11:24;101992.09;;;8.83;66.46
14204;BME280;7185;51.854;6.622;2024-03-17T02:13:59;101989.53;;;8.88;66.50
14204;BME280;7185;51.854;6.622;2024-03-17T02:16:30;101992.16;;;8.89;66.52
14204;BME280;7185;51.854;6.622;2024-03-17T02:19:02;101987.72;;;8.84;66.60
14204;BME280;7185;51.854;6.622;2024-03-17T02:21:34;101986.81;;;8.80;66.30
14204;BME280;7185;51.854;6.622;2024-03-17T02:24:07;101983.28;;;8.78;66.65
14204;BME280;7185;51.854;6.622;2024-03-17T02:26:39;101972.81;;;8.75;66.65
14204;BME280;7185;51.854;6.622;2024-03-17T02:29:10;101974.63;;;8.81;67.02
14204;BME280;7185;51.854;6.622;2024-03-17T02:31:42;101980.59;;;8.70;67.27
14204;BME280;7185;51.854;6.622;2024-03-17T02:34:13;101977.19;;;8.76;67.11
14204;BME280;7185;51.854;6.622;2024-03-17T02:36:45;101978.06;;;8.76;66.69
14204;BME280;7185;51.854;6.622;2024-03-17T02:39:17;101972.75;;;8.69;66.76
14204;BME280;7185;51.854;6.622;2024-03-17T02:42:07;101967.53;;;8.72;67.19
14204;BME280;7185;51.854;6.622;2024-03-17T02:44:38;101969.16;;;8.62;67.28
14204;BME280;7185;51.854;6.622;2024-03-17T02:47:11;101963.19;;;8.72;67.26
14204;BME280;7185;51.854;6.622;2024-03-17T02:49:45;101955.38;;;8.74;67.03
14204;BME280;7185;51.854;6.622;2024-03-17T02:52:20;101957.19;;;8.81;67.03
14204;BME280;7185;51.854;6.622;2024-03-17T02:54:53;101962.34;;;8.75;66.74
14204;BME280;7185;51.854;6.622;2024-03-17T02:57:25;101959.75;;;8.76;66.89
14204;BME280;7185;51.854;6.622;2024-03-17T03:00:00;101956.22;;;8.74;66.50
14204;BME280;7185;51.854;6.622;2024-03-17T03:02:34;101958.84;;;8.73;66.62
14204;BME280;7185;51.854;6.622;2024-03-17T03:05:06;101955.31;;;8.69;66.56
14204;BME280;7185;51.854;6.622;2024-03-17T03:07:38;101955.31;;;8.71;66.69
14204;BME280;7185;51.854;6.622;2024-03-17T03:10:12;101961.44;;;8.71;66.82
14204;BME280;7185;51.854;6.622;2024-03-17T03:12:44;101966.59;;;8.65;66.41
14204;BME280;7185;51.854;6.622;2024-03-17T03:15:17;101964.00;;;8.67;67.03
14204;BME280;7185;51.854;6.622;2024-03-17T03:17:49;101971.09;;;8.77;66.52
14204;BME280;7185;51.854;6.622;2024-03-17T03:20:21;101969.28;;;8.73;66.67
14204;BME280;7185;51.854;6.622;2024-03-17T03:38:19;101971.91;;;8.71;66.56
14204;BME280;7185;51.854;6.622;2024-03-17T03:52:47;101970.19;;;8.75;66.91
14204;BME280;7185;51.854;6.622;2024-03-17T03:55:20;101967.72;;;8.87;66.68
14204;BME280;7185;51.854;6.622;2024-03-17T03:57:52;101958.31;;;9.06;66.46
14204;BME280;7185;51.854;6.622;2024-03-17T04:00:24;101960.81;;;8.96;66.50
14204;BME280;7185;51.854;6.622;2024-03-17T04:03:00;101960.94;;;9.05;66.60
14204;BME280;7185;51.854;6.622;2024-03-17T04:05:32;101954.91;;;9.12;66.81
14204;BME280;7185;51.854;6.622;2024-03-17T04:08:10;101959.28;;;9.16;66.38
14204;BME280;7185;51.854;6.622;2024-03-17T04:10:44;101956.66;;;9.15;66.41
14204;BME280;7185;51.854;6.622;2024-03-17T04:13:16;101972.56;;;9.36;65.99
14204;BME280;7185;51.854;6.622;2024-03-17T04:15:49;101964.63;;;9.29;65.90
14204;BME280;7185;51.854;6.622;2024-03-17T04:18:20;101955.91;;;9.27;65.83
14204;BME280;7185;51.854;6.622;2024-03-17T04:20:53;101963.88;;;9.42;66.23
14204;BME280;7185;51.854;6.622;2024-03-17T04:23:24;101957.72;;;9.37;66.02
14204;BME280;7185;51.854;6.622;2024-03-17T04:25:59;101954.25;;;9.38;66.16
14204;BME280;7185;51.854;6.622;2024-03-17T04:28:31;101952.47;;;9.34;65.69
14204;BME280;7185;51.854;6.622;2024-03-17T04:31:03;101948.06;;;9.31;66.11
14204;BME280;7185;51.854;6.622;2024-03-17T04:33:35;101936.81;;;9.40;66.03
14204;BME280;7185;51.854;6.622;2024-03-17T04:36:07;101933.22;;;9.25;66.39
14204;BME280;7185;51.854;6.622;2024-03-17T04:38:39;101922.56;;;9.07;66.32
14204;BME280;7185;51.854;6.622;2024-03-17T04:41:16;101922.56;;;9.07;66.37
14204;BME280;7185;51.854;6.622;2024-03-17T04:43:47;101927.84;;;9.13;66.85
14204;BME280;7185;51.854;6.622;2024-03-17T04:46:19;101927.84;;;9.13;66.43
14204;BME280;7185;51.854;6.622;2024-03-17T04:48:51;101916.50;;;9.11;66.52
14204;BME280;7185;51.854;6.622;2024-03-17T04:51:22;101917.31;;;9.04;66.10
14204;BME280;7185;51.854;6.622;2024-03-17T04:53:54;101916.50;;;9.14;66.34
14204;BME280;7185;51.854;6.622;2024-03-17T04:56:27;101914.78;;;9.15;65.71
14204;BME280;7185;51.854;6.622;2024-03-17T04:58:59;101910.56;;;9.31;65.79
14204;BME280;7185;51.854;6.622;2024-03-17T05:01:31;101914.84;;;9.19;65.82
14204;BME280;7185;51.854;6.622;2024-03-17T05:04:07;101919.13;;;9.14;65.40
14204;BME280;7185;51.854;6.622;2024-03-17T05:06:39;101919.19;;;9.17;65.99
14204;BME280;7185;51.854;6.622;2024-03-17T05:09:12;101916.59;;;9.25;65.51
14204;BME280;7185;51.854;6.622;2024-03-17T05:11:46;101912.38;;;9.38;65.04
14204;BME280;7185;51.854;6.622;2024-03-17T05:14:18;101908.66;;;9.11;65.89
14204;BME280;7185;51.854;6.622;2024-03-17T05:16:51;101904.50;;;9.38;65.61
14204;BME280;7185;51.854;6.622;2024-03-17T05:19:22;101905.38;;;9.35;65.54
14204;BME280;7185;51.854;6.622;2024-03-17T05:21:54;101908.88;;;9.39;65.29
14204;BME280;7185;51.854;6.622;2024-03-17T05:24:26;101904.50;;;9.39;65.40
14204;BME280;7185;51.854;6.622;2024-03-17T05:26:59;101902.78;;;9.41;65.56
14204;BME280;7185;51.854;6.622;2024-03-17T05:29:31;101901.97;;;9.50;65.16
14204;BME280;7185;51.854;6.622;2024-03-17T05:32:03;101900.25;;;9.52;65.35
14204;BME280;7185;51.854;6.622;2024-03-17T05:34:35;101907.25;;;9.53;64.79
14204;BME280;7185;51.854;6.622;2024-03-17T05:37:09;101899.47;;;9.67;64.74
14204;BME280;7185;51.854;6.622;2024-03-17T05:39:40;101905.59;;;9.69;64.37
14204;BME280;7185;51.854;6.622;2024-03-17T05:42:13;101900.41;;;9.76;64.23
14204;BME280;7185;51.854;6.622;2024-03-17T05:44:48;101906.53;;;9.79;64.65
14204;BME280;7185;51.854;6.622;2024-03-17T05:47:21;101905.41;;;9.43;65.35
14204;BME280;7185;51.854;6.622;2024-03-17T05:49:53;101904.50;;;9.38;65.62
14204;BME280;7185;51.854;6.622;2024-03-17T05:52:26;101911.59;;;9.50;65.59
14204;BME280;7185;51.854;6.622;2024-03-17T05:54:58;101903.78;;;9.56;65.69
14204;BME280;7185;51.854;6.622;2024-03-17T05:57:31;101908.19;;;9.66;65.24
14204;BME280;7185;51.854;6.622;2024-03-17T06:00:03;101909.03;;;9.61;65.29
14204;BME280;7185;51.854;6.622;2024-03-17T06:02:35;101906.44;;;9.64;65.22
14204;BME280;7185;51.854;6.622;2024-03-17T06:05:07;101908.25;;;9.74;65.54
14204;BME280;7185;51.854;6.622;2024-03-17T06:07:40;101906.50;;;9.71;65.50
14204;BME280;7185;51.854;6.622;2024-03-17T06:10:12;101897.75;;;9.68;65.45
14204;BME280;7185;51.854;6.622;2024-03-17T06:12:45;101896.91;;;9.75;65.49
14204;BME280;7185;51.854;6.622;2024-03-17T06:15:17;101892.44;;;9.60;65.47
14204;BME280;7185;51.854;6.622;2024-03-17T06:17:51;101893.47;;;9.85;65.01
14204;BME280;7185;51.854;6.622;2024-03-17T06:20:24;101892.66;;;9.96;65.00
14204;BME280;7185;51.854;6.622;2024-03-17T06:22:58;101907.47;;;9.87;65.21
14204;BME280;7185;51.854;6.622;2024-03-17T06:25:30;101911.84;;;9.90;65.28
14204;BME280;7185;51.854;6.622;2024-03-17T06:28:04;101910.13;;;10.01;64.88
14204;BME280;7185;51.854;6.622;2024-03-17T06:30:35;101908.34;;;9.93;65.11
14204;BME280;7185;51.854;6.622;2024-03-17T06:33:12;101907.53;;;10.03;65.10
14204;BME280;7185;51.854;6.622;2024-03-17T06:35:44;101900.59;;;10.11;64.66
14204;BME280;7185;51.854;6.622;2024-03-17T06:38:17;101898.84;;;10.10;64.70
14204;BME280;7185;51.854;6.622;2024-03-17T06:40:49;101885.72;;;10.04;65.25
14204;BME280;7185;51.854;6.622;2024-03-17T06:43:22;101887.50;;;10.22;65.06
14204;BME280;7185;51.854;6.622;2024-03-17T06:45:55;101877.91;;;10.19;64.80
14204;BME280;7185;51.854;6.622;2024-03-17T06:48:28;101878.75;;;10.15;65.27
14204;BME280;7185;51.854;6.622;2024-03-17T06:51:00;101875.34;;;10.32;64.64
14204;BME280;7185;51.854;6.622;2024-03-17T06:53:33;101885.00;;;10.42;64.43
14204;BME280;7185;51.854;6.622;2024-03-17T06:56:05;101881.50;;;10.43;64.44
14204;BME280;7185;51.854;6.622;2024-03-17T06:58:38;101886.78;;;10.46;64.09
14204;BME280;7185;51.854;6.622;2024-03-17T07:01:10;101895.53;;;10.58;63.74
14204;BME280;7185;51.854;6.622;2024-03-17T07:03:42;101901.66;;;10.61;63.73
14204;BME280;7185;51.854;6.622;2024-03-17T07:06:13;101890.31;;;10.65;63.56
14204;BME280;7185;51.854;6.622;2024-03-17T07:08:45;101888.56;;;10.75;63.38
14204;BME280;7185;51.854;6.622;2024-03-17T07:11:17;101889.44;;;10.73;64.06
14204;BME280;7185;51.854;6.622;2024-03-17T07:13:50;101891.22;;;10.97;63.17
14204;BME280;7185;51.854;6.622;2024-03-17T07:16:22;101882.47;;;11.20;62.29
14204;BME280;7185;51.854;6.622;2024-03-17T07:18:55;101884.25;;;11.14;62.48
14204;BME280;7185;51.854;6.622;2024-03-17T07:21:28;101876.34;;;11.18;62.52
14204;BME280;7185;51.854;6.622;2024-03-17T07:23:59;101882.50;;;11.38;62.23
14204;BME280;7185;51.854;6.622;2024-03-17T07:26:34;101881.56;;;11.59;61.96
14204;BME280;7185;51.854;6.622;2024-03-17T07:29:07;101884.19;;;11.45;61.83
14204;BME280;7185;51.854;6.622;2024-03-17T07:31:39;101888.50;;;11.90;61.08
14204;BME280;7185;51.854;6.622;2024-03-17T07:34:11;101880.28;;;12.67;60.77
14204;BME280;7185;51.854;6.622;2024-03-17T07:36:43;101885.06;;;13.31;60.37
14204;BME280;7185;51.854;6.622;2024-03-17T07:39:15;101883.84;;;13.70;56.95
14204;BME280;7185;51.854;6.622;2024-03-17T07:41:46;101880.19;;;13.81;56.18
14204;BME280;7185;51.854;6.622;2024-03-17T07:44:19;101881.84;;;13.91;54.54
14204;BME280;7185;51.854;6.622;2024-03-17T07:46:51;101875.59;;;14.64;54.74
14204;BME280;7185;51.854;6.622;2024-03-17T07:49:23;101879.97;;;14.68;52.64
14204;BME280;7185;51.854;6.622;2024-03-17T07:51:54;101885.88;;;14.84;51.54
14204;BME280;7185;51.854;6.622;2024-03-17T07:54:28;101885.44;;;15.12;50.75
14204;BME280;7185;51.854;6.622;2024-03-17T07:56:59;101901.69;;;15.40;49.94
14204;BME280;7185;51.854;6.622;2024-03-17T07:59:32;101895.94;;;15.67;49.78
14204;BME280;7185;51.854;6.622;2024-03-17T08:02:04;101892.91;;;15.88;49.40
14204;BME280;7185;51.854;6.622;2024-03-17T08:04:36;101905.81;;;16.05;48.53
14204;BME280;7185;51.854;6.622;2024-03-17T08:07:09;101900.00;;;15.38;48.76
14204;BME280;7185;51.854;6.622;2024-03-17T08:09:41;101895.13;;;15.61;48.38
14204;BME280;7185;51.854;6.622;2024-03-17T08:12:13;101892.56;;;15.07;48.66
14204;BME280;7185;51.854;6.622;2024-03-17T08:14:46;101886.69;;;15.41;49.82
14204;BME280;7185;51.854;6.622;2024-03-17T08:17:18;101889.06;;;15.56;49.67
14204;BME280;7185;51.854;6.622;2024-03-17T08:19:50;101883.03;;;15.50;48.83
14204;BME280;7185;51.854;6.622;2024-03-17T08:22:22;101887.91;;;15.23;48.96
14204;BME280;7185;51.854;6.622;2024-03-17T08:24:53;101882.75;;;16.11;48.22
14204;BME280;7185;51.854;6.622;2024-03-17T08:27:25;101889.97;;;16.84;46.19
14204;BME280;7185;51.854;6.622;2024-03-17T08:29:58;101891.38;;;17.35;44.96
14204;BME280;7185;51.854;6.622;2024-03-17T08:32:30;101886.78;;;16.68;44.56
14204;BME280;7185;51.854;6.622;2024-03-17T08:35:02;101884.28;;;17.37;45.27
14204;BME280;7185;51.854;6.622;2024-03-17T08:37:36;101887.75;;;17.04;43.94
14204;BME280;7185;51.854;6.622;2024-03-17T08:40:08;101886.00;;;17.03;45.05
14204;BME280;7185;51.854;6.622;2024-03-17T08:42:39;101884.91;;;17.78;43.71
14204;BME280;7185;51.854;6.622;2024-03-17T08:45:13;101884.09;;;17.76;42.26
14204;BME280;7185;51.854;6.622;2024-03-17T08:47:44;101885.13;;;17.38;42.98
14204;BME280;7185;51.854;6.622;2024-03-17T08:50:16;101875.06;;;18.15;41.99
14204;BME280;7185;51.854;6.622;2024-03-17T08:52:49;101877.75;;;19.27;40.74
14204;BME280;7185;51.854;6.622;2024-03-17T08:55:21;101873.94;;;19.07;40.03
14204;BME280;7185;51.854;6.622;2024-03-17T08:57:53;101875.06;;;19.52;39.37
14204;BME280;7185;51.854;6.622;2024-03-17T09:00:26;101868.19;;;19.47;38.98
14204;BME280;7185;51.854;6.622;2024-03-17T09:02:57;101864.75;;;19.68;39.13
14204;BME280;7185;51.854;6.622;2024-03-17T09:05:29;101860.53;;;19.37;39.57
14204;BME280;7185;51.854;6.622;2024-03-17T09:08:04;101863.00;;;19.17;39.41
14204;BME280;7185;51.854;6.622;2024-03-17T09:10:39;101852.91;;;18.44;41.14
14204;BME280;7185;51.854;6.622;2024-03-17T09:13:13;101856.97;;;18.28;40.91
14204;BME280;7185;51.854;6.622;2024-03-17T09:15:59;101863.13;;;18.00;41.67
14204;BME280;7185;51.854;6.622;2024-03-17T09:18:32;101866.84;;;17.60;42.98
14204;BME280;7185;51.854;6.622;2024-03-17T09:21:06;101866.44;;;17.42;43.45
14204;BME280;7185;51.854;6.622;2024-03-17T09:23:39;101863.28;;;17.61;43.28
14204;BME280;7185;51.854;6.622;2024-03-17T09:26:10;101871.19;;;17.29;43.67
14204;BME280;7185;51.854;6.622;2024-03-17T09:28:44;101869.94;;;17.10;44.84
14204;BME280;7185;51.854;6.622;2024-03-17T09:31:17;101868.44;;;17.34;44.64
14204;BME280;7185;51.854;6.622;2024-03-17T09:33:50;101863.53;;;17.84;44.26
14204;BME280;7185;51.854;6.622;2024-03-17T09:36:22;101859.44;;;18.04;43.12
14204;BME280;7185;51.854;6.622;2024-03-17T09:38:53;101860.41;;;17.37;43.69
14204;BME280;7185;51.854;6.622;2024-03-17T09:41:25;101848.06;;;18.00;42.91
14204;BME280;7185;51.854;6.622;2024-03-17T09:43:58;101845.63;;;17.60;43.40
14204;BME280;7185;51.854;6.622;2024-03-17T09:46:31;101848.47;;;18.16;42.79
14204;BME280;7185;51.854;6.622;2024-03-17T09:49:09;101846.94;;;17.76;43.89
14204;BME280;7185;51.854;6.622;2024-03-17T09:51:47;101851.66;;;17.66;42.91
14204;BME280;7185;51.854;6.622;2024-03-17T09:54:20;101847.78;;;17.47;44.47
14204;BME280;7185;51.854;6.622;2024-03-17T09:56:52;101839.84;;;18.08;43.38
14204;BME280;7185;51.854;6.622;2024-03-17T09:59:24;101844.75;;;17.28;44.81
14204;BME280;7185;51.854;6.622;2024-03-17T10:01:57;101852.75;;;17.25;45.11
14204;BME280;7185;51.854;6.622;2024-03-17T10:04:32;101852.09;;;16.80;45.34
14204;BME280;7185;51.854;6.622;2024-03-17T10:07:04;101846.84;;;17.15;45.65
14204;BME280;7185;51.854;6.622;2024-03-17T10:09:36;101843.00;;;17.27;45.66
14204;BME280;7185;51.854;6.622;2024-03-17T10:12:25;101839.09;;;17.07;45.20
14204;BME280;7185;51.854;6.622;2024-03-17T10:14:58;101844.94;;;17.20;44.36
14204;BME280;7185;51.854;6.622;2024-03-17T10:17:32;101842.97;;;17.61;43.85
14204;BME280;7185;51.854;6.622;2024-03-17T10:20:12;101843.28;;;17.49;43.84
14204;BME280;7185;51.854;6.622;2024-03-17T10:22:57;101851.28;;;17.14;44.21
14204;BME280;7185;51.854;6.622;2024-03-17T10:25:31;101858.34;;;16.76;44.83
14204;BME280;7185;51.854;6.622;2024-03-17T10:28:04;101854.66;;;16.83;44.30
14204;BME280;7185;51.854;6.622;2024-03-17T10:30:41;101862.31;;;16.96;45.23
14204;BME280;7185;51.854;6.622;2024-03-17T10:38:40;101858.72;;;17.00;45.03
14204;BME280;7185;51.854;6.622;2024-03-17T10:41:25;101854.16;;;17.38;45.10
14204;BME280;7185;51.854;6.622;2024-03-17T10:44:17;101853.69;;;16.87;45.33
14204;BME280;7185;51.854;6.622;2024-03-17T10:47:12;101848.22;;;16.95;45.13
14204;BME280;7185;51.854;6.622;2024-03-17T10:50:18;101846.06;;;16.73;45.52
14204;BME280;7185;51.854;6.622;2024-03-17T10:53:04;101847.22;;;16.62;45.67
14204;BME280;7185;51.854;6.622;2024-03-17T10:55:45;101839.06;;;16.32;45.47
14204;BME280;7185;51.854;6.622;2024-03-17T10:58:34;101839.16;;;16.66;46.03
14204;BME280;7185;51.854;6.622;2024-03-17T11:01:28;101840.22;;;16.59;46.90
14204;BME280;7185;51.854;6.622;2024-03-17T11:04:16;101834.47;;;16.79;46.90
14204;BME280;7185;51.854;6.622;2024-03-17T11:07:06;101838.59;;;16.53;46.61
14204;BME280;7185;51.854;6.622;2024-03-17T11:13:06;101846.50;;;16.55;48.15
14204;BME280;7185;51.854;6.622;2024-03-17T11:16:36;101842.88;;;16.97;46.47
14204;BME280;7185;51.854;6.622;2024-03-17T11:19:20;101840.56;;;16.81;46.08
14204;BME280;7185;51.854;6.622;2024-03-17T11:25:40;101833.69;;;16.74;47.39
14204;BME280;7185;51.854;6.622;2024-03-17T11:31:57;101830.97;;;16.39;46.62
14204;BME280;7185;51.854;6.622;2024-03-17T11:34:49;101823.94;;;16.76;48.83
14204;BME280;7185;51.854;6.622;2024-03-17T11:37:47;101825.44;;;16.86;48.41
14204;BME280;7185;51.854;6.622;2024-03-17T11:40:41;101828.72;;;16.60;46.58
14204;BME280;7185;51.854;6.622;2024-03-17T11:43:18;101826.53;;;16.41;46.66
14204;BME280;7185;51.854;6.622;2024-03-17T11:46:03;101822.63;;;16.94;47.24
14204;BME280;7185;51.854;6.622;2024-03-17T11:49:05;101821.53;;;16.65;47.18
14204;BME280;7185;51.854;6.622;2024-03-17T11:52:40;101817.16;;;17.35;46.61
14204;BME280;7185;51.854;6.622;2024-03-17T11:58:24;101818.00;;;17.37;46.66
14204;BME280;7185;51.854;6.622;2024-03-17T12:01:09;101814.63;;;16.96;45.59
14204;BME280;7185;51.854;6.622;2024-03-17T12:03:40;101809.44;;;16.91;45.71
14204;BME280;7185;51.854;6.622;2024-03-17T12:06:14;101800.28;;;17.38;46.09
14204;BME280;7185;51.854;6.622;2024-03-17T12:08:45;101800.41;;;17.00;46.51
14204;BME280;7185;51.854;6.622;2024-03-17T12:11:17;101794.16;;;17.35;44.33
14204;BME280;7185;51.854;6.622;2024-03-17T12:13:48;101796.88;;;17.65;44.84
14204;BME280;7185;51.854;6.622;2024-03-17T12:16:20;101788.44;;;17.51;44.00
14204;BME280;7185;51.854;6.622;2024-03-17T12:18:52;101788.06;;;17.32;44.55
14204;BME280;7185;51.854;6.622;2024-03-17T12:21:25;101783.41;;;17.72;43.56
14204;BME280;7185;51.854;6.622;2024-03-17T12:23:56;101786.97;;;17.71;43.69
14204;BME280;7185;51.854;6.622;2024-03-17T12:26:27;101776.38;;;17.71;43.40
14204;BME280;7185;51.854;6.622;2024-03-17T12:28:58;101776.28;;;18.05;42.73
14204;BME280;7185;51.854;6.622;2024-03-17T12:31:30;101767.94;;;18.44;42.48
14204;BME280;7185;51.854;6.622;2024-03-17T12:34:01;101767.50;;;18.31;43.10
14204;BME280;7185;51.854;6.622;2024-03-17T12:36:34;101764.88;;;18.30;43.30
14204;BME280;7185;51.854;6.622;2024-03-17T12:39:10;101753.44;;;18.82;42.53
14204;BME280;7185;51.854;6.622;2024-03-17T12:41:42;101759.34;;;18.36;42.10
14204;BME280;7185;51.854;6.622;2024-03-17T12:44:21;101752.72;;;18.76;41.51
14204;BME280;7185;51.854;6.622;2024-03-17T12:46:57;101751.69;;;18.80;40.63
14204;BME280;7185;51.854;6.622;2024-03-17T12:54:59;101723.47;;;19.98;40.50
14204;BME280;7185;51.854;6.622;2024-03-17T12:57:45;101728.00;;;19.72;39.48
14204;BME280;7185;51.854;6.622;2024-03-17T13:00:35;101718.75;;;19.35;40.09
14204;BME280;7185;51.854;6.622;2024-03-17T13:03:07;101721.28;;;19.15;39.86
14204;BME280;7185;51.854;6.622;2024-03-17T13:05:46;101721.06;;;18.70;40.40
14204;BME280;7185;51.854;6.622;2024-03-17T13:08:18;101724.16;;;18.03;42.07
14204;BME280;7185;51.854;6.622;2024-03-17T13:10:52;101707.00;;;18.13;42.60
14204;BME280;7185;51.854;6.622;2024-03-17T13:13:24;101708.97;;;18.35;42.29
14204;BME280;7185;51.854;6.622;2024-03-17T13:15:56;101699.38;;;18.30;41.33
14204;BME280;7185;51.854;6.622;2024-03-17T13:18:29;101703.31;;;18.19;43.41
14204;BME280;7185;51.854;6.622;2024-03-17T13:21:00;101697.28;;;18.40;41.39
14204;BME280;7185;51.854;6.622;2024-03-17T13:23:32;101693.97;;;18.60;41.66
14204;BME280;7185;51.854;6.622;2024-03-17T13:26:06;101686.91;;;18.32;41.67
14204;BME280;7185;51.854;6.622;2024-03-17T13:28:38;101685.81;;;18.65;41.71
14204;BME280;7185;51.854;6.622;2024-03-17T13:31:10;101676.47;;;18.78;41.79
14204;BME280;7185;51.854;6.622;2024-03-17T13:33:43;101670.59;;;18.43;42.40
14204;BME280;7185;51.854;6.622;2024-03-17T13:36:16;101658.69;;;18.80;40.93
14204;BME280;7185;51.854;6.622;2024-03-17T13:38:47;101654.69;;;18.69;41.60
14204;BME280;7185;51.854;6.622;2024-03-17T13:41:25;101650.88;;;18.76;41.23
14204;BME280;7185;51.854;6.622;2024-03-17T13:43:57;101642.88;;;18.77;40.70
14204;BME280;7185;51.854;6.622;2024-03-17T13:46:29;101655.00;;;18.34;41.61
14204;BME280;7185;51.854;6.622;2024-03-17T13:49:07;101640.78;;;18.62;41.28
14204;BME280;7185;51.854;6.622;2024-03-17T13:51:39;101639.72;;;18.66;42.29
14204;BME280;7185;51.854;6.622;2024-03-17T13:54:11;101641.97;;;18.26;42.12
14204;BME280;7185;51.854;6.622;2024-03-17T13:56:48;101628.03;;;18.46;41.53
14204;BME280;7185;51.854;6.622;2024-03-17T13:59:20;101622.63;;;18.23;42.19
14204;BME280;7185;51.854;6.622;2024-03-17T14:01:55;101620.22;;;18.92;41.27
14204;BME280;7185;51.854;6.622;2024-03-17T14:04:27;101621.03;;;18.44;43.26
14204;BME280;7185;51.854;6.622;2024-03-17T14:07:00;101628.09;;;18.70;41.27
14204;BME280;7185;51.854;6.622;2024-03-17T14:09:31;101613.69;;;18.76;41.60
14204;BME280;7185;51.854;6.622;2024-03-17T14:12:05;101614.34;;;18.83;42.32
14204;BME280;7185;51.854;6.622;2024-03-17T14:14:37;101612.72;;;19.04;42.63
14204;BME280;7185;51.854;6.622;2024-03-17T14:17:10;101614.28;;;18.60;42.25
14204;BME280;7185;51.854;6.622;2024-03-17T14:19:43;101606.31;;;18.35;41.89
14204;BME280;7185;51.854;6.622;2024-03-17T14:22:15;101613.56;;;18.03;41.84
14204;BME280;7185;51.854;6.622;2024-03-17T14:24:47;101617.19;;;18.53;41.35
14204;BME280;7185;51.854;6.622;2024-03-17T14:27:21;101610.41;;;18.44;41.08
14204;BME280;7185;51.854;6.622;2024-03-17T14:29:53;101616.81;;;18.63;41.43
14204;BME280;7185;51.854;6.622;2024-03-17T14:32:25;101604.59;;;18.58;41.51
14204;BME280;7185;51.854;6.622;2024-03-17T14:34:58;101613.66;;;18.27;42.72
14204;BME280;7185;51.854;6.622;2024-03-17T14:37:30;101615.03;;;18.64;42.34